Time;durP1;ratioP1;P1;durP2;ratioP2;P2;SDS_P1;SDS_P2;PMS_P1;PMS_P2;Temp;Humidity;BMP_temperature;BMP_pressure;BME280_temperature;BME280_humidity;BME280_pressure;Samples;Min_cycle;Max_cycle;Signal;HPM_P1;HPM_P2
2022/04/02 00:02:46;;;;;;;0.30;0.25;;;;;;;0.84;99.82;101115.19;6298466;28;20055;-74
2022/04/02 00:05:48;;;;;;;2.63;0.82;;;;;;;0.76;97.35;101115.25;6293205;28;20067;-74
2022/04/02 00:08:51;;;;;;;0.43;0.43;;;;;;;0.76;97.98;101116.97;6286320;28;20297;-74
2022/04/02 00:11:52;;;;;;;0.40;0.40;;;;;;;0.74;97.11;101117.00;6284779;28;20048;-74
2022/04/02 00:14:53;;;;;;;0.20;0.20;;;;;;;0.75;95.69;101112.69;6275996;28;20416;-73
2022/04/02 00:17:55;;;;;;;0.93;0.50;;;;;;;0.73;94.92;101120.47;6284675;28;20048;-74
2022/04/02 00:20:57;;;;;;;0.43;0.43;;;;;;;0.66;96.65;101121.34;6279816;28;20049;-73
2022/04/02 00:24:00;;;;;;;2.28;0.50;;;;;;;0.67;96.37;101120.47;6278424;28;20452;-74
2022/04/02 00:27:01;;;;;;;0.65;0.60;;;;;;;0.63;95.81;101123.94;6272190;28;20057;-74
2022/04/02 00:30:03;;;;;;;0.77;0.47;;;;;;;0.64;95.52;101132.59;6287605;28;20052;-74
2022/04/02 00:33:05;;;;;;;1.33;0.60;;;;;;;0.54;95.24;101125.75;6298096;28;20425;-74
2022/04/02 00:36:07;;;;;;;5.10;0.57;;;;;;;0.55;97.15;101132.66;6298232;28;20055;-75
2022/04/02 00:39:09;;;;;;;0.50;0.50;;;;;;;0.53;97.61;101129.19;6293942;28;20044;-75
2022/04/02 00:42:11;;;;;;;0.40;0.40;;;;;;;0.48;95.76;101126.63;6288644;28;20048;-74
2022/04/02 00:45:12;;;;;;;0.43;0.43;;;;;;;0.48;96.96;101136.97;6297958;28;20044;-74
2022/04/02 00:48:14;;;;;;;0.70;0.68;;;;;;;0.46;97.01;101141.31;6297801;28;20048;-75
2022/04/02 00:51:16;;;;;;;0.98;0.77;;;;;;;0.41;96.82;101130.13;6297178;28;20049;-74
2022/04/02 00:54:21;;;;;;;0.40;0.40;;;;;;;0.40;98.93;101137.00;6297951;28;20053;-74
2022/04/02 00:57:22;;;;;;;0.47;0.47;;;;;;;0.39;95.49;101140.47;6297755;28;20056;-75
2022/04/02 01:00:24;;;;;;;3.45;1.13;;;;;;;0.37;97.89;101144.81;6271678;28;20061;-74
2022/04/02 01:03:27;;;;;;;0.43;0.43;;;;;;;0.34;98.65;101146.53;6271418;28;20515;-74
2022/04/02 01:06:29;;;;;;;0.65;0.47;;;;;;;0.33;99.49;101142.25;6273982;28;20049;-75
2022/04/02 01:09:32;;;;;;;0.40;0.40;;;;;;;0.33;99.96;101140.53;6271106;28;20057;-75
2022/04/02 01:12:34;;;;;;;7.40;0.60;;;;;;;0.31;98.86;101141.38;6270568;28;20076;-75
2022/04/02 01:15:36;;;;;;;0.30;0.30;;;;;;;0.30;99.59;101148.28;6268516;28;20045;-75
2022/04/02 01:18:37;;;;;;;1.10;0.47;;;;;;;0.31;99.00;101155.16;6270756;28;20523;-75
2022/04/02 01:21:39;;;;;;;0.65;0.65;;;;;;;0.30;100.00;101143.09;6270171;28;20045;-75
2022/04/02 01:24:41;;;;;;;0.68;0.60;;;;;;;0.33;98.93;101150.84;6271335;28;20052;-75
2022/04/02 01:27:44;;;;;;;0.52;0.32;;;;;;;0.34;97.77;101147.41;6270601;28;20049;-75
2022/04/02 01:30:45;;;;;;;0.30;0.30;;;;;;;0.34;99.93;101154.28;6269646;28;20045;-74
2022/04/02 01:33:49;;;;;;;0.90;0.50;;;;;;;0.32;98.89;101154.31;6270741;28;20159;-75
2022/04/02 01:36:50;;;;;;;1.25;0.55;;;;;;;0.32;99.88;101154.31;6269841;28;20067;-74
2022/04/02 01:39:53;;;;;;;1.02;0.57;;;;;;;0.34;98.51;101162.06;6270567;28;20044;-75
2022/04/02 01:42:55;;;;;;;0.82;0.70;;;;;;;0.34;99.81;101157.75;6271393;28;20508;-75
2022/04/02 01:45:57;;;;;;;2.30;0.88;;;;;;;0.33;98.52;101157.75;6272161;28;20052;-74
2022/04/02 01:48:58;;;;;;;0.40;0.40;;;;;;;0.36;99.36;101163.75;6271848;28;20182;-75
2022/04/02 01:51:59;;;;;;;1.13;0.68;;;;;;;0.30;99.26;101153.44;6271051;28;20049;-75
2022/04/02 01:55:02;;;;;;;1.30;0.88;;;;;;;0.33;98.74;101165.50;6272030;28;20048;-74
2022/04/02 01:58:04;;;;;;;0.60;0.50;;;;;;;0.30;100.00;101160.34;6271582;28;20053;-75
2022/04/02 02:01:06;;;;;;;0.88;0.77;;;;;;;0.28;99.39;101175.00;6271247;28;20059;-75
2022/04/02 02:04:07;;;;;;;0.43;0.40;;;;;;;0.23;96.98;101164.69;6271485;28;20064;-75
2022/04/02 02:07:09;;;;;;;7.38;0.65;;;;;;;0.26;99.35;101172.41;6271859;28;20053;-74
2022/04/02 02:10:12;;;;;;;0.60;0.50;;;;;;;0.25;97.95;101175.88;6271172;28;20063;-75
2022/04/02 02:13:13;;;;;;;0.93;0.52;;;;;;;0.24;99.88;101172.44;6271461;28;20477;-76
2022/04/02 02:16:14;;;;;;;1.20;0.77;;;;;;;0.22;98.84;101173.28;6274558;28;20071;-75
2022/04/02 02:19:17;;;;;;;1.15;0.80;;;;;;;0.21;98.05;101184.50;6282301;28;20517;-75
2022/04/02 02:22:18;;;;;;;1.42;0.77;;;;;;;0.20;98.24;101182.78;6286915;28;20135;-75
2022/04/02 02:25:21;;;;;;;0.73;0.73;;;;;;;0.18;97.80;101184.50;6296115;28;20045;-75
2022/04/02 02:28:23;;;;;;;0.98;0.68;;;;;;;0.21;96.27;101193.09;6280527;28;20142;-75
2022/04/02 02:31:24;;;;;;;0.30;0.30;;;;;;;0.22;96.13;101183.63;6295360;28;20059;-75
2022/04/02 02:37:44;;;;;;;0.73;0.70;;;;;;;0.15;97.60;101189.69;6285083;28;20056;-74
2022/04/02 02:40:48;;;;;;;2.92;0.63;;;;;;;0.18;98.32;101187.97;6295509;28;20049;-75
2022/04/02 02:43:49;;;;;;;0.70;0.60;;;;;;;0.14;96.53;101191.44;6295752;28;20045;-75
2022/04/02 02:46:51;;;;;;;0.43;0.43;;;;;;;0.16;96.56;101194.00;6296157;28;20060;-75
2022/04/02 02:49:53;;;;;;;2.53;0.40;;;;;;;0.17;98.80;101196.56;6298411;28;20060;-74
2022/04/02 02:52:55;;;;;;;1.95;1.20;;;;;;;0.18;96.73;101203.47;6300544;28;20049;-75
2022/04/02 02:55:57;;;;;;;0.50;0.43;;;;;;;0.16;95.67;101204.34;6300631;28;20040;-75
2022/04/02 02:58:59;;;;;;;0.90;0.65;;;;;;;0.20;97.98;101203.47;6300372;28;20052;-74
2022/04/02 03:02:00;;;;;;;0.80;0.57;;;;;;;0.21;97.53;101202.59;6292596;28;20049;-76
2022/04/02 03:05:01;;;;;;;1.00;0.70;;;;;;;0.21;98.33;101206.03;6275710;28;20049;-75
2022/04/02 03:08:03;;;;;;;0.40;0.40;;;;;;;0.20;97.46;101203.47;6275675;28;20053;-74
2022/04/02 03:11:06;;;;;;;2.42;0.82;;;;;;;0.17;98.07;101206.06;6274805;28;20508;-74
2022/04/02 03:14:07;;;;;;;0.77;0.68;;;;;;;0.19;99.12;101209.50;6275651;28;20049;-75
2022/04/02 03:17:09;;;;;;;1.10;0.60;;;;;;;0.19;97.64;101205.19;6275496;28;20057;-75
2022/04/02 03:20:12;;;;;;;1.60;0.88;;;;;;;0.21;99.96;101215.50;6275053;28;20053;-75
2022/04/02 03:23:13;;;;;;;0.63;0.50;;;;;;;0.18;98.91;101218.97;6274631;28;20045;-75
2022/04/02 03:26:16;;;;;;;0.40;0.40;;;;;;;0.18;100.00;101224.16;6275470;28;20511;-74
2022/04/02 03:29:18;;;;;;;1.00;0.90;;;;;;;0.20;99.90;101224.13;6275120;28;20059;-74
2022/04/02 03:32:19;;;;;;;0.22;0.22;;;;;;;0.21;99.25;101225.84;6274565;28;20055;-74
2022/04/02 03:35:21;;;;;;;0.82;0.52;;;;;;;0.21;100.00;101224.13;6274626;28;20045;-74
2022/04/02 03:38:23;;;;;;;0.70;0.70;;;;;;;0.25;100.00;101224.97;6274669;28;20049;-75
2022/04/02 03:41:26;;;;;;;1.65;0.98;;;;;;;0.25;99.14;101227.56;6274351;28;20060;-74
2022/04/02 03:44:28;;;;;;;0.80;0.52;;;;;;;0.27;99.77;101235.31;6274842;28;20080;-75
2022/04/02 03:47:30;;;;;;;0.50;0.50;;;;;;;0.22;99.57;101228.41;6274694;28;20416;-74
2022/04/02 03:50:31;;;;;;;0.73;0.63;;;;;;;0.22;100.00;101238.75;6273683;28;20060;-75
2022/04/02 03:53:33;;;;;;;1.95;0.80;;;;;;;0.25;100.00;101240.47;6274733;28;20045;-75
2022/04/02 03:56:35;;;;;;;1.75;0.95;;;;;;;0.29;99.59;101237.03;6274347;28;20056;-74
2022/04/02 03:59:37;;;;;;;0.38;0.38;;;;;;;0.31;98.12;101243.03;6273902;28;20049;-76
2022/04/02 04:02:39;;;;;;;2.17;0.68;;;;;;;0.33;97.84;101245.63;6273860;28;20049;-75
2022/04/02 04:05:43;;;;;;;1.38;0.75;;;;;;;0.31;97.65;101249.94;6274485;28;20139;-75
2022/04/02 04:08:44;;;;;;;1.30;0.73;;;;;;;0.32;98.71;101249.06;6274146;28;20055;-74
2022/04/02 04:11:47;;;;;;;0.38;0.38;;;;;;;0.33;97.86;101243.91;6273563;28;20052;-74
2022/04/02 04:14:49;;;;;;;0.50;0.50;;;;;;;0.31;98.23;101255.97;6277246;28;20123;-74
2022/04/02 04:17:50;;;;;;;0.70;0.70;;;;;;;0.33;97.43;101248.22;6286088;28;20044;-75
2022/04/02 04:20:51;;;;;;;0.75;0.40;;;;;;;0.36;99.05;101258.53;6298232;28;20423;-74
2022/04/02 04:23:52;;;;;;;0.80;0.38;;;;;;;0.35;95.34;101260.25;6287825;28;20036;-75
2022/04/02 04:26:55;;;;;;;1.77;0.95;;;;;;;0.39;99.29;101261.13;6286576;28;20499;-74
2022/04/02 04:29:57;;;;;;;1.23;0.63;;;;;;;0.39;99.39;101261.97;6298208;28;20273;-75
2022/04/02 04:32:59;;;;;;;1.60;0.50;;;;;;;0.45;95.65;101263.69;6298258;28;20575;-74
2022/04/02 04:36:00;;;;;;;0.40;0.40;;;;;;;0.37;92.77;101270.63;6298314;28;20055;-74
2022/04/02 04:39:01;;;;;;;2.20;0.77;;;;;;;0.41;95.40;101270.59;6298265;28;20059;-74
2022/04/02 04:42:05;;;;;;;1.40;0.60;;;;;;;0.39;95.49;101272.31;6280099;28;20511;-74
2022/04/02 04:45:07;;;;;;;0.47;0.43;;;;;;;0.40;96.34;101278.34;6287519;28;20407;-74
2022/04/02 04:48:08;;;;;;;0.93;0.60;;;;;;;0.40;96.98;101281.78;6275017;28;20045;-75
2022/04/02 04:51:11;;;;;;;3.15;0.60;;;;;;;0.39;96.61;101285.25;6270951;28;20049;-74
2022/04/02 04:54:12;;;;;;;1.17;0.60;;;;;;;0.41;96.67;101285.22;6268769;28;20055;-75
2022/04/02 04:57:15;;;;;;;2.50;0.70;;;;;;;0.41;97.29;101299.03;6271475;28;20047;-74
2022/04/02 05:00:17;;;;;;;0.70;0.43;;;;;;;0.41;98.97;101296.47;6271121;28;20045;-74
2022/04/02 05:03:18;;;;;;;0.40;0.40;;;;;;;0.44;98.40;101293.84;6271259;28;20057;-74
2022/04/02 05:06:20;;;;;;;0.50;0.50;;;;;;;0.45;98.65;101295.56;6272263;28;20056;-74
2022/04/02 05:09:21;;;;;;;1.42;0.85;;;;;;;0.46;100.00;101297.31;6272713;28;20064;-75
2022/04/02 05:12:24;;;;;;;1.45;0.70;;;;;;;0.50;100.00;101295.56;6271489;28;20632;-74
2022/04/02 05:15:25;;;;;;;5.20;0.60;;;;;;;0.52;99.79;101303.31;6272448;28;20492;-75
2022/04/02 05:18:27;;;;;;;1.65;0.80;;;;;;;0.49;100.00;101299.00;6272565;28;20074;-75
2022/04/02 05:21:28;;;;;;;1.40;0.68;;;;;;;0.48;100.00;101307.63;6271728;28;20052;-74
2022/04/02 05:24:30;;;;;;;2.95;0.60;;;;;;;0.46;100.00;101312.81;6272274;28;20048;-75
2022/04/02 05:27:33;;;;;;;1.50;0.77;;;;;;;0.49;100.00;101305.03;6272140;28;20059;-75
2022/04/02 05:30:35;;;;;;;2.50;0.90;;;;;;;0.52;100.00;101304.16;6271579;28;20049;-75
2022/04/02 05:33:38;;;;;;;1.00;0.65;;;;;;;0.54;100.00;101317.09;6272403;28;20045;-75
2022/04/02 05:36:41;;;;;;;1.88;1.10;;;;;;;0.57;100.00;101320.53;6271999;28;20138;-75
2022/04/02 05:39:42;;;;;;;0.50;0.47;;;;;;;0.59;100.00;101326.56;6272219;28;20048;-75
2022/04/02 05:42:46;;;;;;;1.08;0.75;;;;;;;0.61;100.00;101330.00;6271094;28;20060;-74
2022/04/02 05:45:48;;;;;;;2.38;1.15;;;;;;;0.63;100.00;101332.56;6271923;28;20424;-75
2022/04/02 05:48:49;;;;;;;1.02;0.70;;;;;;;0.67;100.00;101335.16;6271648;28;20074;-75
2022/04/02 05:51:50;;;;;;;4.00;1.30;;;;;;;0.67;100.00;101340.31;6270689;28;20048;-74
2022/04/02 05:54:52;;;;;;;3.28;1.30;;;;;;;0.71;100.00;101341.19;6271403;28;20049;-75
2022/04/02 05:57:55;;;;;;;1.85;1.02;;;;;;;0.73;100.00;101339.47;6271773;28;20045;-74
2022/04/02 06:00:56;;;;;;;0.90;0.73;;;;;;;0.75;100.00;101343.75;6271122;28;20049;-74
2022/04/02 06:03:58;;;;;;;1.38;1.17;;;;;;;0.75;100.00;101343.75;6271356;28;20048;-75
2022/04/02 06:06:59;;;;;;;1.65;1.15;;;;;;;0.79;100.00;101351.50;6274549;28;20072;-74
2022/04/02 06:10:02;;;;;;;1.17;0.90;;;;;;;0.79;100.00;101352.38;6281564;28;20044;-74
2022/04/02 06:13:05;;;;;;;1.20;1.05;;;;;;;0.79;100.00;101360.13;6280159;28;20044;-75
2022/04/02 06:16:07;;;;;;;1.48;1.10;;;;;;;0.87;100.00;101354.94;6279842;28;20045;-75
2022/04/02 06:19:08;;;;;;;5.60;1.48;;;;;;;0.88;100.00;101362.69;6282216;28;20047;-75
2022/04/02 06:22:09;;;;;;;9.65;1.88;;;;;;;0.93;100.00;101370.44;6287360;28;20511;-75
2022/04/02 06:25:11;;;;;;;3.05;1.77;;;;;;;0.97;100.00;101375.59;6301606;28;20048;-75
2022/04/02 06:28:13;;;;;;;2.40;1.45;;;;;;;1.01;100.00;101381.63;6286141;28;20048;-75
2022/04/02 06:31:15;;;;;;;3.45;1.95;;;;;;;1.05;100.00;101380.75;6283110;28;20130;-74
2022/04/02 06:34:16;;;;;;;9.43;5.55;;;;;;;1.07;100.00;101389.34;6293009;28;20056;-74
2022/04/02 06:37:17;;;;;;;3.78;2.28;;;;;;;1.10;100.00;101391.94;6300983;28;20055;-74
2022/04/02 06:40:19;;;;;;;5.68;2.08;;;;;;;1.10;100.00;101404.88;6300525;28;20052;-74
2022/04/02 06:43:21;;;;;;;2.80;1.50;;;;;;;1.19;100.00;101404.84;6292101;28;20048;-74
2022/04/02 06:46:23;;;;;;;4.40;2.22;;;;;;;1.32;100.00;101405.66;6251387;28;20053;-74
2022/04/02 06:49:24;;;;;;;10.70;3.15;;;;;;;1.37;100.00;101408.22;6250939;28;20052;-74
2022/04/02 06:52:25;;;;;;;1.52;1.23;;;;;;;1.41;100.00;101405.59;6250530;28;20440;-74
2022/04/02 06:55:27;;;;;;;2.63;1.65;;;;;;;1.45;100.00;101406.41;6251101;28;20493;-73
2022/04/02 06:58:34;;;;;;;3.75;1.52;;;;;;;1.50;100.00;101415.06;6251088;28;20049;-74
2022/04/02 07:01:36;;;;;;;2.70;1.67;;;;;;;1.58;100.00;101409.81;6250404;28;20053;-74
2022/04/02 07:04:37;;;;;;;2.38;2.17;;;;;;;1.64;100.00;101405.47;6250648;28;20401;-74
2022/04/02 07:07:38;;;;;;;2.33;1.63;;;;;;;1.68;100.00;101412.34;6250743;28;20421;-73
2022/04/02 07:10:40;;;;;;;2.03;1.10;;;;;;;1.71;100.00;101409.72;6249789;28;20053;-73
2022/04/02 07:13:42;;;;;;;3.03;1.27;;;;;;;1.68;100.00;101409.75;6250811;28;20421;-74
2022/04/02 07:16:44;;;;;;;1.67;1.42;;;;;;;1.74;100.00;101414.91;6250553;28;20100;-74
2022/04/02 07:19:47;;;;;;;2.58;1.23;;;;;;;1.78;100.00;101426.13;6250256;28;20451;-74
2022/04/02 07:22:50;;;;;;;2.30;1.52;;;;;;;1.85;100.00;101422.59;6250016;28;20045;-73
2022/04/02 07:25:55;;;;;;;2.72;1.17;;;;;;;1.81;100.00;101433.84;6250482;28;20523;-74
2022/04/02 07:28:59;;;;;;;2.00;1.13;;;;;;;1.80;100.00;101431.28;6250214;28;20057;-74
2022/04/02 07:32:01;;;;;;;2.22;1.10;;;;;;;1.78;100.00;101433.88;6249636;28;20045;-74
2022/04/02 07:35:02;;;;;;;4.18;1.70;;;;;;;1.87;100.00;101443.34;6249530;28;20042;-74
2022/04/02 07:38:11;;;;;;;1.65;1.10;;;;;;;1.90;100.00;101440.69;6249853;28;20459;-73
2022/04/02 07:41:21;;;;;;;2.20;1.23;;;;;;;2.04;100.00;101436.28;6249445;28;20054;-73
2022/04/02 07:44:32;;;;;;;1.65;1.10;;;;;;;2.07;100.00;101440.59;6249808;28;20606;-74
2022/04/02 07:47:35;;;;;;;2.13;1.23;;;;;;;2.21;100.00;101439.63;6250013;28;20053;-73
2022/04/02 07:50:41;;;;;;;0.73;0.70;;;;;;;2.32;100.00;101442.13;6258679;28;20049;-74
2022/04/02 07:53:45;;;;;;;1.15;0.88;;;;;;;2.40;100.00;101445.50;6285502;28;20518;-74
2022/04/02 07:56:50;;;;;;;0.77;0.70;;;;;;;2.40;100.00;101448.09;6290648;28;20052;-74
2022/04/02 07:59:58;;;;;;;1.42;1.05;;;;;;;2.42;100.00;101445.50;6298802;28;20052;-74
2022/04/02 08:03:01;;;;;;;2.55;1.30;;;;;;;2.53;100.00;101456.66;6290295;28;20047;-74
2022/04/02 08:06:03;;;;;;;1.80;1.15;;;;;;;2.56;100.00;101450.59;6273997;28;20072;-74
2022/04/02 08:09:04;;;;;;;1.20;1.10;;;;;;;2.60;100.00;101454.88;6273944;28;20044;-74
2022/04/02 08:12:11;;;;;;;1.90;0.90;;;;;;;2.70;99.91;101453.91;6278375;28;20492;-74
2022/04/02 08:15:17;;;;;;;0.98;0.85;;;;;;;2.70;99.96;101454.75;6272284;28;20519;-74
2022/04/02 08:18:20;;;;;;;1.13;1.02;;;;;;;2.66;99.74;101455.66;6278117;28;20036;-74
2022/04/02 08:21:22;;;;;;;1.42;0.80;;;;;;;2.70;100.00;101465.13;6273129;28;20179;-74
2022/04/02 08:24:23;;;;;;;1.20;0.95;;;;;;;2.63;100.00;101460.00;6273982;28;20060;-74
2022/04/02 08:27:32;;;;;;;3.08;1.02;;;;;;;2.70;100.00;101464.28;6280137;28;20047;-73
2022/04/02 08:30:39;;;;;;;1.27;1.08;;;;;;;2.69;99.13;101462.56;6283463;28;20508;-74
2022/04/02 08:33:49;;;;;;;1.40;1.08;;;;;;;2.73;98.97;101479.84;6280860;28;20078;-74
2022/04/02 08:36:59;;;;;;;7.97;1.45;;;;;;;2.82;98.23;101487.53;6277514;28;20041;-74
2022/04/02 08:40:12;;;;;;;1.70;1.10;;;;;;;2.95;99.66;101485.66;6284186;28;20628;-74
2022/04/02 08:43:50;;;;;;;2.50;1.63;;;;;;;3.04;96.71;101481.25;6280589;28;20049;-74
2022/04/02 08:47:11;;;;;;;0.83;0.57;;;;;;;2.94;95.88;101476.16;6276839;28;20041;-74
2022/04/02 08:50:14;;;;;;;1.40;1.05;;;;;;;3.16;94.50;101481.97;6272621;28;20049;-74
2022/04/02 08:53:19;;;;;;;3.22;1.73;;;;;;;3.15;91.88;101488.91;6260567;28;20044;-74
2022/04/02 08:56:24;;;;;;;2.03;1.10;;;;;;;3.05;90.20;101487.31;6261379;28;20056;-74
2022/04/02 08:59:37;;;;;;;5.60;0.88;;;;;;;3.10;91.29;101480.31;6278567;28;20052;-74
2022/04/02 09:02:56;;;;;;;1.63;1.40;;;;;;;3.19;89.59;101490.63;6258864;28;20060;-74
2022/04/02 09:06:17;;;;;;;1.25;1.10;;;;;;;3.23;90.64;101486.25;6275380;28;20535;-74
2022/04/02 09:09:38;;;;;;;2.17;1.05;;;;;;;3.34;90.84;101486.97;6270244;28;20061;-74
2022/04/02 09:13:03;;;;;;;3.20;1.13;;;;;;;3.46;89.66;101485.97;6280270;28;20389;-74
2022/04/02 09:16:06;;;;;;;6.20;1.35;;;;;;;3.50;90.02;101482.47;6289168;28;20052;-73
2022/04/02 09:19:14;;;;;;;2.08;0.95;;;;;;;3.48;88.76;101485.06;6293193;28;20055;-73
2022/04/02 09:22:31;;;;;;;2.45;1.48;;;;;;;3.52;87.97;101493.69;6277608;28;20052;-74
2022/04/02 09:25:57;;;;;;;3.15;1.10;;;;;;;3.42;85.62;101490.34;6273754;28;20048;-74
2022/04/02 09:29:13;;;;;;;1.08;0.85;;;;;;;3.40;86.50;101499.03;6272293;28;20049;-74
2022/04/02 09:32:51;;;;;;;1.08;0.82;;;;;;;3.38;86.21;101498.19;6265347;28;20068;-73
2022/04/02 09:36:24;;;;;;;0.60;0.60;;;;;;;3.28;85.17;101493.09;6271400;28;20048;-74
2022/04/02 09:39:43;;;;;;;2.40;1.63;;;;;;;3.39;85.58;101492.97;6273161;28;20057;-74
2022/04/02 09:42:46;;;;;;;5.93;1.33;;;;;;;3.56;80.84;101485.84;6296121;28;20055;-72
2022/04/02 09:45:59;;;;;;;1.92;0.90;;;;;;;3.65;81.21;101482.25;6296767;28;20044;-72
2022/04/02 09:49:08;;;;;;;1.40;0.75;;;;;;;3.79;79.54;101484.69;6277840;28;20052;-72
2022/04/02 09:52:18;;;;;;;0.55;0.38;;;;;;;3.74;72.54;101482.16;6269080;28;20053;-72
2022/04/02 09:55:23;;;;;;;1.15;0.70;;;;;;;4.00;74.72;101481.78;6263374;28;20489;-70
2022/04/02 09:58:40;;;;;;;0.70;0.60;;;;;;;4.21;67.67;101485.78;6270307;28;20187;-71
2022/04/02 10:01:49;;;;;;;0.45;0.45;;;;;;;4.23;69.23;101481.44;6259913;28;20053;-71
2022/04/02 10:04:54;;;;;;;0.60;0.60;;;;;;;4.26;69.79;101477.91;6268901;28;20044;-73
2022/04/02 10:08:04;;;;;;;0.82;0.60;;;;;;;4.47;65.88;101475.00;6270367;28;20053;-72
2022/04/02 10:11:07;;;;;;;0.55;0.55;;;;;;;4.53;66.76;101480.06;6270844;28;20044;-71
2022/04/02 10:14:09;;;;;;;0.32;0.30;;;;;;;4.64;65.06;101474.72;6271666;28;20049;-71
2022/04/02 10:17:13;;;;;;;1.60;0.93;;;;;;;4.80;68.25;101477.91;6270459;28;20056;-71
2022/04/02 10:20:19;;;;;;;4.20;0.68;;;;;;;4.78;64.71;101480.53;6270209;28;20056;-71
2022/04/02 10:23:24;;;;;;;1.10;0.70;;;;;;;4.82;64.67;101481.34;6271248;28;20096;-70
2022/04/02 10:26:31;;;;;;;0.77;0.60;;;;;;;4.65;64.15;101475.56;6271189;28;20515;-70
2022/04/02 10:29:52;;;;;;;2.10;0.55;;;;;;;4.54;61.17;101479.22;6271401;28;20057;-71
2022/04/02 10:33:26;;;;;;;2.83;0.50;;;;;;;4.44;61.53;101474.16;6270983;28;20489;-71
2022/04/02 10:36:22;;;;;;;2.35;1.27;;;;;;;4.40;63.86;101473.34;6271130;28;20635;-73
2022/04/02 10:39:26;;;;;;;4.53;0.80;;;;;;;4.39;59.74;101476.84;6271548;28;20049;-73
2022/04/02 10:42:33;;;;;;;2.05;1.00;;;;;;;4.22;59.13;101468.44;6270137;28;20530;-70
2022/04/02 10:45:36;;;;;;;1.83;0.88;;;;;;;4.15;58.04;101480.69;6271359;28;20045;-70
2022/04/02 10:48:55;;;;;;;1.95;0.93;;;;;;;4.28;62.09;101470.97;6268850;28;20485;-71
2022/04/02 10:51:56;;;;;;;0.87;0.53;;;;;;;4.49;60.81;101482.75;6282786;28;20049;-71
2022/04/02 10:54:59;;;;;;;1.73;0.50;;;;;;;4.78;59.88;101469.25;6284992;28;20293;-73
2022/04/02 10:58:00;;;;;;;0.75;0.70;;;;;;;5.03;58.70;101460.09;6295734;28;20052;-72
2022/04/02 11:01:05;;;;;;;0.55;0.52;;;;;;;5.12;55.92;101463.41;6295154;28;20059;-76
2022/04/02 11:04:24;;;;;;;1.52;1.17;;;;;;;5.48;55.18;101460.06;6269824;28;20052;-76
2022/04/02 11:07:28;;;;;;;0.40;0.40;;;;;;;5.63;54.70;101465.84;6270188;28;20443;-73
2022/04/02 11:10:34;;;;;;;1.10;0.65;;;;;;;5.48;52.48;101472.25;6267107;28;20052;-73
2022/04/02 11:13:37;;;;;;;0.55;0.47;;;;;;;5.29;58.33;101472.63;6273915;28;20046;-73
2022/04/02 11:16:41;;;;;;;1.20;0.57;;;;;;;5.38;59.86;101473.34;6275358;28;20420;-72
2022/04/02 11:23:10;;;;;;;0.70;0.40;;;;;;;5.87;59.38;101469.69;6275015;28;20408;-73
2022/04/02 11:26:15;;;;;;;2.92;0.47;;;;;;;5.70;57.55;101468.31;6268230;28;20064;-73
2022/04/02 11:29:19;;;;;;;0.82;0.70;;;;;;;5.55;57.62;101472.09;6273122;28;20063;-73
2022/04/02 11:32:24;;;;;;;1.15;0.60;;;;;;;5.39;58.03;101477.66;6282693;28;20048;-73
2022/04/02 11:35:26;;;;;;;0.80;0.57;;;;;;;5.38;61.06;101482.00;6268337;28;20045;-73
2022/04/02 11:38:34;;;;;;;2.78;0.85;;;;;;;5.81;59.61;101470.66;6272339;28;20053;-73
2022/04/02 11:41:39;;;;;;;1.30;0.65;;;;;;;6.70;58.56;101468.59;6274181;28;20070;-73
2022/04/02 11:44:52;;;;;;;2.42;0.63;;;;;;;6.97;55.14;101467.88;6274795;28;20056;-73
2022/04/02 11:48:01;;;;;;;2.38;1.42;;;;;;;7.07;53.55;101471.09;6274403;28;20049;-75
2022/04/02 11:51:14;;;;;;;1.25;0.93;;;;;;;6.82;54.45;101466.53;6269205;28;20052;-75
2022/04/02 11:54:15;;;;;;;0.75;0.50;;;;;;;6.82;56.63;101482.22;6274018;28;20166;-73
2022/04/02 11:57:19;;;;;;;1.63;0.43;;;;;;;6.96;53.10;101475.75;6274678;28;20095;-73
2022/04/02 12:00:21;;;;;;;1.15;0.90;;;;;;;7.28;54.56;101473.13;6269058;28;20049;-76
2022/04/02 12:03:23;;;;;;;3.58;1.35;;;;;;;7.15;49.54;101473.50;6261088;28;20048;-73
2022/04/02 12:06:34;;;;;;;2.03;1.02;;;;;;;6.61;49.13;101481.00;6256967;28;20064;-73
2022/04/02 12:09:50;;;;;;;0.95;0.75;;;;;;;6.15;50.29;101464.75;6261848;28;20071;-73
2022/04/02 12:12:55;;;;;;;0.47;0.47;;;;;;;5.93;55.62;101467.84;6269007;28;20427;-75
2022/04/02 12:16:05;;;;;;;1.20;0.55;;;;;;;5.83;53.94;101471.50;6267916;28;20059;-75
2022/04/02 12:19:11;;;;;;;0.95;0.68;;;;;;;5.95;55.96;101471.28;6268942;28;20048;-73
2022/04/02 12:22:18;;;;;;;1.02;0.70;;;;;;;6.82;53.33;101466.53;6282557;28;20040;-76
2022/04/02 12:25:21;;;;;;;1.35;0.90;;;;;;;7.14;52.23;101466.56;6273713;28;20045;-75
2022/04/02 12:28:24;;;;;;;2.33;0.68;;;;;;;6.90;49.14;101468.91;6273674;28;20135;-76
2022/04/02 12:31:27;;;;;;;0.75;0.50;;;;;;;6.31;48.15;101466.06;6272948;28;20052;-75
2022/04/02 12:34:30;;;;;;;1.27;0.80;;;;;;;6.04;46.67;101471.06;6273848;28;20492;-75
2022/04/02 12:37:33;;;;;;;0.28;0.25;;;;;;;6.44;44.92;101459.66;6273519;28;20408;-75
2022/04/02 12:40:41;;;;;;;0.47;0.43;;;;;;;7.10;46.29;101452.72;6272916;28;20052;-75
2022/04/02 12:43:48;;;;;;;0.65;0.65;;;;;;;7.81;44.56;101446.28;6273410;28;20078;-75
2022/04/02 12:46:50;;;;;;;1.58;0.82;;;;;;;8.17;42.12;101443.41;6260101;28;20052;-76
2022/04/02 12:49:52;;;;;;;0.98;0.60;;;;;;;8.03;42.72;101443.88;6268281;28;20154;-74
2022/04/02 12:52:53;;;;;;;0.77;0.55;;;;;;;7.48;43.77;101450.78;6285389;28;20052;-76
2022/04/02 12:55:55;;;;;;;0.55;0.55;;;;;;;6.80;44.23;101464.84;6297893;28;20044;-75
2022/04/02 12:58:59;;;;;;;1.23;0.65;;;;;;;6.65;43.87;101460.88;6286231;28;20052;-78
2022/04/02 13:02:02;;;;;;;0.80;0.70;;;;;;;6.63;43.67;101462.66;6271433;28;20044;-72
2022/04/02 13:05:04;;;;;;;1.75;0.65;;;;;;;6.80;44.36;101480.53;6268045;28;20045;-75
2022/04/02 13:08:06;;;;;;;1.38;0.80;;;;;;;7.18;45.52;101470.81;6267634;28;20079;-75
2022/04/02 13:11:13;;;;;;;0.85;0.70;;;;;;;7.54;45.54;101467.16;6266027;28;20045;-75
2022/04/02 13:14:18;;;;;;;1.63;0.95;;;;;;;7.99;42.06;101471.88;6267390;28;20056;-76
2022/04/02 13:17:20;;;;;;;0.63;0.63;;;;;;;8.21;40.35;101455.50;6267604;28;20042;-76
2022/04/02 13:20:29;;;;;;;0.75;0.70;;;;;;;8.50;38.75;101446.75;6260733;28;20485;-74
2022/04/02 13:23:42;;;;;;;;;;;;;;;8.63;36.85;101450.69;6265283;28;20557;-74
2022/04/02 13:26:54;;;;;;;0.55;0.40;;;;;;;8.77;36.37;101448.44;6272383;28;20295;-73
2022/04/02 13:30:04;;;;;;;1.00;0.57;;;;;;;8.21;40.58;101453.75;6271921;28;20053;-73
2022/04/02 13:33:53;;;;;;;0.85;0.50;;;;;;;7.71;40.67;101458.78;6271311;28;20114;-74
2022/04/02 13:37:14;;;;;;;0.80;0.50;;;;;;;7.63;40.41;101452.97;6252125;28;20041;-74
2022/04/02 13:40:19;;;;;;;0.82;0.50;;;;;;;8.52;41.03;101448.41;6271267;28;20052;-73
2022/04/02 13:43:29;;;;;;;0.40;0.40;;;;;;;8.60;36.87;101446.38;6247402;28;20596;-73
2022/04/02 13:46:36;;;;;;;1.42;0.77;;;;;;;8.20;37.36;101451.19;6247138;28;20565;-73
2022/04/02 13:49:43;;;;;;;1.42;0.73;;;;;;;8.30;37.20;101453.44;6258648;28;20049;-74
2022/04/02 13:52:58;;;;;;;1.48;0.45;;;;;;;8.93;39.16;101461.84;6268092;28;20413;-73
2022/04/02 13:56:08;;;;;;;0.52;0.52;;;;;;;8.56;36.06;101442.16;6256461;28;20642;-73
2022/04/02 13:59:11;;;;;;;1.27;0.63;;;;;;;8.35;36.22;101451.53;6286279;28;20048;-73
2022/04/02 14:02:26;;;;;;;0.52;0.52;;;;;;;8.22;37.22;101460.72;6295937;28;20044;-73
2022/04/02 14:05:29;;;;;;;0.68;0.52;;;;;;;8.14;37.44;101444.41;6289923;28;20483;-74
2022/04/02 14:08:35;;;;;;;0.93;0.57;;;;;;;8.53;38.05;101449.25;6271516;28;20524;-73
2022/04/02 14:11:37;;;;;;;0.82;0.57;;;;;;;8.68;32.60;101456.63;6270404;28;20048;-73
2022/04/02 14:14:57;;;;;;;0.82;0.70;;;;;;;8.61;35.24;101453.31;6271690;28;20056;-73
2022/04/02 14:18:03;;;;;;;;;;;;;;;8.38;31.10;101450.63;6271680;28;20056;-73
2022/04/02 14:21:07;;;;;;;1.50;0.60;;;;;;;8.50;32.04;101447.59;6271007;28;20372;-73
2022/04/02 14:24:16;;;;;;;1.25;0.50;;;;;;;8.87;35.54;101443.72;6271273;28;20049;-73
2022/04/02 14:27:41;;;;;;;0.43;0.40;;;;;;;9.23;33.47;101445.94;6271439;28;20041;-73
2022/04/02 14:31:12;;;;;;;1.25;0.45;;;;;;;9.16;36.19;101440.06;6268844;28;20052;-73
2022/04/02 14:34:43;;;;;;;0.68;0.68;;;;;;;8.35;36.31;101446.28;6270143;28;20044;-73
2022/04/02 14:38:22;;;;;;;2.38;0.77;;;;;;;7.66;34.46;101450.22;6266570;28;20171;-74